createdAt,value
2023-03-21T00:01:03.908Z,31.92
2023-03-21T00:02:45.334Z,32.82
2023-03-21T00:04:28.402Z,31.52
2023-03-21T00:06:12.556Z,30.49
2023-03-21T00:07:53.865Z,29.57
2023-03-21T00:09:35.161Z,29.16
2023-03-21T00:11:16.441Z,29.08
2023-03-21T00:12:57.719Z,29.83
2023-03-21T00:14:39.008Z,31.43
2023-03-21T00:16:31.442Z,32.03
2023-03-21T00:18:15.464Z,30.05
2023-03-21T00:19:56.732Z,28.96
2023-03-21T00:21:55.573Z,28.55
2023-03-21T00:23:39.258Z,32.02
2023-03-21T00:25:20.605Z,33.41
2023-03-21T00:27:21.954Z,32.38
2023-03-21T00:29:03.232Z,29.99
2023-03-21T00:30:44.567Z,29.61
2023-03-21T00:32:25.868Z,30.24
2023-03-21T00:34:07.188Z,30.98
2023-03-21T00:36:05.695Z,32.65
2023-03-21T00:37:47.247Z,32.51
2023-03-21T00:39:28.650Z,31.19
2023-03-21T00:41:20.970Z,31.10
2023-03-21T00:43:07.364Z,33.76
2023-03-21T00:44:48.690Z,34.34
2023-03-21T00:46:39.765Z,34.05
2023-03-21T00:48:23.945Z,32.78
2023-03-21T00:50:05.230Z,30.50
2023-03-21T00:51:46.541Z,30.80
2023-03-21T00:53:27.868Z,32.04
2023-03-21T00:55:09.124Z,31.72
2023-03-21T00:56:50.428Z,32.33
2023-03-21T00:58:31.728Z,32.81
2023-03-21T01:00:13.069Z,34.93
2023-03-21T01:01:54.408Z,33.04
2023-03-21T01:03:35.767Z,32.95
2023-03-21T01:05:17.121Z,35.24
2023-03-21T01:06:58.407Z,32.36
2023-03-21T01:08:54.997Z,35.40
2023-03-21T01:10:36.301Z,36.31
2023-03-21T01:12:17.621Z,36.76
2023-03-21T01:14:14.776Z,35.77
2023-03-21T01:16:00.283Z,34.59
2023-03-21T01:17:41.598Z,33.11
2023-03-21T01:19:37.524Z,33.96
2023-03-21T01:21:22.253Z,35.29
2023-03-21T01:23:03.553Z,37.17
2023-03-21T01:24:53.866Z,35.77
2023-03-21T01:26:36.600Z,34.09
2023-03-21T01:28:17.877Z,35.10
2023-03-21T01:29:59.867Z,35.33
2023-03-21T01:31:41.483Z,34.11
2023-03-21T01:33:22.846Z,31.93
2023-03-21T01:35:04.128Z,31.36
2023-03-21T01:36:45.521Z,31.32
2023-03-21T01:38:26.862Z,30.84
2023-03-21T01:40:08.159Z,30.32
2023-03-21T01:41:49.527Z,28.34
2023-03-21T01:43:30.851Z,29.81
2023-03-21T01:45:12.143Z,28.72
2023-03-21T01:47:09.323Z,28.28
2023-03-21T01:48:51.479Z,30.56
2023-03-21T01:50:32.780Z,32.52
2023-03-21T01:52:23.641Z,29.60
2023-03-21T01:54:11.297Z,28.35
2023-03-21T01:55:52.605Z,29.00
2023-03-21T01:57:42.408Z,31.20
2023-03-21T01:59:26.625Z,31.92
2023-03-21T02:01:08.051Z,32.57
2023-03-21T02:02:49.400Z,32.91
2023-03-21T02:04:30.727Z,30.92
2023-03-21T02:06:12.067Z,29.49
2023-03-21T02:07:53.365Z,31.69
2023-03-21T02:09:34.659Z,33.18
2023-03-21T02:11:15.953Z,32.27
2023-03-21T02:12:57.244Z,31.03
2023-03-21T02:14:38.581Z,31.93
2023-03-21T02:16:19.903Z,30.13
2023-03-21T02:18:01.260Z,31.24
2023-03-21T02:19:52.757Z,29.78
2023-03-21T02:21:34.782Z,28.23
2023-03-21T02:23:16.102Z,27.59
2023-03-21T02:25:01.452Z,28.44
2023-03-21T02:26:48.206Z,29.11
2023-03-21T02:28:31.490Z,28.20
2023-03-21T02:30:17.403Z,28.96
2023-03-21T02:32:15.129Z,28.91
2023-03-21T02:34:01.506Z,28.29
2023-03-21T02:35:52.361Z,28.53
2023-03-21T02:37:38.347Z,29.94
2023-03-21T02:39:19.818Z,29.20
2023-03-21T02:41:03.371Z,27.93
2023-03-21T02:42:48.921Z,28.87
2023-03-21T02:44:33.066Z,29.12
2023-03-21T02:46:14.358Z,27.81
2023-03-21T02:47:55.701Z,29.34
2023-03-21T02:49:37.026Z,30.93
2023-03-21T02:51:18.300Z,29.66
2023-03-21T02:52:59.634Z,28.46
2023-03-21T02:54:47.929Z,28.39
2023-03-21T02:56:29.955Z,28.17
2023-03-21T02:58:13.371Z,29.82
2023-03-21T03:00:00.260Z,31.01
2023-03-21T03:01:43.854Z,28.85
2023-03-21T03:03:34.139Z,29.26
2023-03-21T03:05:21.316Z,30.63
2023-03-21T03:07:02.979Z,31.37
2023-03-21T03:08:56.288Z,32.21
2023-03-21T03:10:42.488Z,31.08
2023-03-21T03:12:23.830Z,29.79
2023-03-21T03:14:22.748Z,32.02
2023-03-21T03:16:06.423Z,30.11
2023-03-21T03:17:47.713Z,30.85
2023-03-21T03:19:30.031Z,29.95
2023-03-21T03:21:11.424Z,29.65
2023-03-21T03:22:52.697Z,30.94
2023-03-21T03:24:33.988Z,30.58
2023-03-21T03:26:15.342Z,31.05
2023-03-21T03:27:56.614Z,31.17
2023-03-21T03:29:37.884Z,30.91
2023-03-21T03:31:20.930Z,31.21
2023-03-21T03:33:02.363Z,31.32
2023-03-21T03:34:43.637Z,31.06
2023-03-21T03:36:31.971Z,32.11
2023-03-21T03:38:14.235Z,31.07
2023-03-21T03:39:55.538Z,31.29
2023-03-21T03:42:01.629Z,30.26
2023-03-21T03:43:38.171Z,29.67
2023-03-21T03:45:19.654Z,30.55
2023-03-21T03:47:00.976Z,31.13
2023-03-21T03:48:42.304Z,31.50
2023-03-21T03:50:23.584Z,31.55
2023-03-21T03:52:04.969Z,30.81
2023-03-21T03:53:46.285Z,29.01
2023-03-21T03:55:27.557Z,29.12
2023-03-21T03:57:08.860Z,30.63
2023-03-21T03:58:50.160Z,31.72
2023-03-21T04:00:31.444Z,31.95
2023-03-21T04:02:12.808Z,31.79
2023-03-21T04:04:03.785Z,32.48
2023-03-21T04:05:53.444Z,32.85
2023-03-21T04:07:34.800Z,31.81
2023-03-21T04:09:21.062Z,30.96
2023-03-21T04:11:04.730Z,31.84
2023-03-21T04:12:46.012Z,30.25
2023-03-21T04:14:35.655Z,29.69
2023-03-21T04:16:20.207Z,32.92
2023-03-21T04:18:01.533Z,31.89
2023-03-21T04:19:42.836Z,30.29
2023-03-21T04:21:24.111Z,30.76
2023-03-21T04:23:05.426Z,30.26
2023-03-21T04:24:46.715Z,29.35
2023-03-21T04:26:28.019Z,29.87
2023-03-21T04:28:09.340Z,29.28
2023-03-21T04:29:50.620Z,31.00
2023-03-21T04:31:31.910Z,30.89
2023-03-21T04:33:13.281Z,30.00
2023-03-21T04:34:56.706Z,31.09
2023-03-21T04:36:38.006Z,31.99
2023-03-21T04:38:19.316Z,31.46
2023-03-21T04:40:00.646Z,31.25
2023-03-21T04:41:42.124Z,31.44
2023-03-21T04:43:23.442Z,31.95
2023-03-21T04:45:04.712Z,33.29
2023-03-21T04:46:46.009Z,33.23
2023-03-21T04:48:27.429Z,33.17
2023-03-21T04:50:08.705Z,33.45
2023-03-21T04:51:49.987Z,33.29
2023-03-21T04:53:31.348Z,32.74
2023-03-21T04:55:12.704Z,32.10
2023-03-21T04:56:53.977Z,32.44
2023-03-21T04:58:35.298Z,32.29
2023-03-21T05:00:16.594Z,33.18
2023-03-21T05:01:57.913Z,34.54
2023-03-21T05:03:39.225Z,34.21
2023-03-21T05:05:20.510Z,34.81
2023-03-21T05:07:01.838Z,34.52
2023-03-21T05:08:43.139Z,35.92
2023-03-21T05:10:24.403Z,36.53
2023-03-21T05:12:05.715Z,36.68
2023-03-21T05:13:47.014Z,36.62
2023-03-21T05:15:28.311Z,34.13
2023-03-21T05:17:09.608Z,32.61
2023-03-21T05:18:50.945Z,32.37
2023-03-21T05:20:32.239Z,33.73
2023-03-21T05:22:13.549Z,32.17
2023-03-21T05:23:54.919Z,32.52
2023-03-21T05:25:36.465Z,32.46
2023-03-21T05:27:17.950Z,32.55
2023-03-21T05:28:59.251Z,32.74
2023-03-21T05:30:40.576Z,33.24
2023-03-21T05:32:21.916Z,33.67
2023-03-21T05:34:03.231Z,34.42
2023-03-21T05:35:44.585Z,34.39
2023-03-21T05:37:25.941Z,35.09
2023-03-21T05:39:07.217Z,35.33
2023-03-21T05:40:48.517Z,37.70
2023-03-21T05:42:29.934Z,37.18
2023-03-21T05:44:11.300Z,34.98
2023-03-21T05:45:52.679Z,33.85
2023-03-21T05:47:33.987Z,37.73
2023-03-21T05:49:15.273Z,37.21
2023-03-21T05:50:56.558Z,36.55
2023-03-21T05:52:37.863Z,35.87
2023-03-21T05:54:19.212Z,35.97
2023-03-21T05:56:00.613Z,34.96
2023-03-21T05:57:41.976Z,35.54
2023-03-21T05:59:23.279Z,36.36
2023-03-21T06:01:04.589Z,34.22
2023-03-21T06:02:45.974Z,37.65
2023-03-21T06:04:27.315Z,37.17
2023-03-21T06:06:08.581Z,37.91
2023-03-21T06:07:49.908Z,38.22
2023-03-21T06:09:31.213Z,37.79
2023-03-21T06:11:12.492Z,38.78
2023-03-21T06:12:53.772Z,39.75
2023-03-21T06:14:35.151Z,38.83
2023-03-21T06:16:16.443Z,38.54
2023-03-21T06:17:57.870Z,37.20
2023-03-21T06:19:39.178Z,37.77
2023-03-21T06:21:20.756Z,37.55
2023-03-21T06:23:02.367Z,36.19
2023-03-21T06:24:43.682Z,36.36
2023-03-21T06:26:24.971Z,35.92
2023-03-21T06:28:06.274Z,36.13
2023-03-21T06:29:47.589Z,37.10
2023-03-21T06:31:28.936Z,35.51
2023-03-21T06:33:10.237Z,35.31
2023-03-21T06:34:51.556Z,34.76
2023-03-21T06:36:32.884Z,35.32
2023-03-21T06:38:14.183Z,35.39
2023-03-21T06:39:55.796Z,36.58
2023-03-21T06:41:37.109Z,36.39
2023-03-21T06:43:18.416Z,36.14
2023-03-21T06:44:59.762Z,34.95
2023-03-21T06:46:41.154Z,34.30
2023-03-21T06:48:22.646Z,35.03
2023-03-21T06:50:03.986Z,35.28
2023-03-21T06:51:46.499Z,34.63
2023-03-21T06:53:27.782Z,33.99
2023-03-21T06:55:09.074Z,34.08
2023-03-21T06:56:50.458Z,34.99
2023-03-21T06:58:31.786Z,34.74
2023-03-21T07:00:13.125Z,35.85
2023-03-21T07:01:54.422Z,35.31
2023-03-21T07:03:35.705Z,35.08
2023-03-21T07:05:17.009Z,34.12
2023-03-21T07:06:58.310Z,34.41
2023-03-21T07:08:39.606Z,34.78
2023-03-21T07:10:20.921Z,34.95
2023-03-21T07:12:02.228Z,34.51
2023-03-21T07:13:43.552Z,35.89
2023-03-21T07:15:24.881Z,35.77
2023-03-21T07:17:06.175Z,36.04
2023-03-21T07:18:47.645Z,35.28
2023-03-21T07:20:29.033Z,35.20
2023-03-21T07:22:10.300Z,35.72
2023-03-21T07:23:51.601Z,35.55
2023-03-21T07:25:32.947Z,35.88
2023-03-21T07:27:14.307Z,35.91
2023-03-21T07:28:55.589Z,36.52
2023-03-21T07:30:36.899Z,37.00
2023-03-21T07:32:18.259Z,36.29
2023-03-21T07:33:59.557Z,36.45
2023-03-21T07:35:41.582Z,36.21
2023-03-21T07:37:23.082Z,35.93
2023-03-21T07:39:04.373Z,36.22
2023-03-21T07:40:45.708Z,35.87
2023-03-21T07:42:27.039Z,35.24
2023-03-21T07:44:08.379Z,34.59
2023-03-21T07:45:49.726Z,34.64
2023-03-21T07:47:31.040Z,35.19
2023-03-21T07:49:12.400Z,35.65
2023-03-21T07:50:53.765Z,35.15
2023-03-21T07:52:35.049Z,34.96
2023-03-21T07:54:16.358Z,35.40
2023-03-21T07:55:57.679Z,34.99
2023-03-21T07:57:39.068Z,34.37
2023-03-21T07:59:20.379Z,33.80
2023-03-21T08:01:01.795Z,34.00
2023-03-21T08:02:43.229Z,34.38
2023-03-21T08:04:24.562Z,35.86
2023-03-21T08:06:05.897Z,36.05
2023-03-21T08:07:47.197Z,36.03
2023-03-21T08:09:30.738Z,35.49
2023-03-21T08:11:12.456Z,35.65
2023-03-21T08:12:53.755Z,35.83
2023-03-21T08:14:35.075Z,35.65
2023-03-21T08:16:16.394Z,35.65
2023-03-21T08:17:57.691Z,35.08
2023-03-21T08:19:38.975Z,35.09
2023-03-21T08:21:20.305Z,34.93
2023-03-21T08:23:01.589Z,34.54
2023-03-21T08:24:42.888Z,34.60
2023-03-21T08:26:24.192Z,34.45
2023-03-21T08:28:05.505Z,34.31
2023-03-21T08:29:46.773Z,33.88
2023-03-21T08:31:28.078Z,33.66
2023-03-21T08:33:09.386Z,33.78
2023-03-21T08:34:50.744Z,33.90
2023-03-21T08:36:32.075Z,33.32
2023-03-21T08:38:13.400Z,32.72
2023-03-21T08:39:54.788Z,31.99
2023-03-21T08:41:36.143Z,30.28
2023-03-21T08:43:17.439Z,28.90
2023-03-21T08:44:58.721Z,28.82
2023-03-21T08:46:40.211Z,26.85
2023-03-21T08:48:21.636Z,26.63
2023-03-21T08:50:02.940Z,26.58
2023-03-21T08:51:44.294Z,24.94
2023-03-21T08:53:25.594Z,24.37
2023-03-21T08:55:06.887Z,23.27
2023-03-21T08:56:48.227Z,22.20
2023-03-21T08:58:29.548Z,21.47
2023-03-21T09:00:10.840Z,20.40
2023-03-21T09:01:52.180Z,19.57
2023-03-21T09:03:33.521Z,19.00
2023-03-21T09:05:14.828Z,18.55
2023-03-21T09:06:56.127Z,18.44
2023-03-21T09:08:37.412Z,17.94
2023-03-21T09:10:38.687Z,17.90
2023-03-21T09:12:39.957Z,17.59
2023-03-21T09:14:41.222Z,17.36
2023-03-21T09:16:42.480Z,16.48
2023-03-21T09:18:43.754Z,15.83
2023-03-21T09:20:25.203Z,15.85
2023-03-21T09:22:06.565Z,17.55
2023-03-21T09:23:47.873Z,18.00
2023-03-21T09:25:29.170Z,18.68
2023-03-21T09:27:10.471Z,17.13
2023-03-21T09:28:51.779Z,18.63
2023-03-21T09:30:33.078Z,18.25
2023-03-21T09:32:14.392Z,18.14
2023-03-21T09:33:55.746Z,18.56
2023-03-21T09:35:37.357Z,16.52
2023-03-21T09:37:18.867Z,16.43
2023-03-21T09:39:00.178Z,14.99
2023-03-21T09:40:41.456Z,14.57
2023-03-21T09:42:22.745Z,16.21
2023-03-21T09:44:04.044Z,16.63
2023-03-21T09:45:45.343Z,15.81
2023-03-21T09:47:26.706Z,15.18
2023-03-21T09:49:08.104Z,16.33
2023-03-21T09:50:49.372Z,16.57
2023-03-21T09:52:30.652Z,15.05
2023-03-21T09:54:11.954Z,15.92
2023-03-21T09:55:53.255Z,15.04
2023-03-21T09:57:34.524Z,16.68
2023-03-21T09:59:15.933Z,15.68
2023-03-21T10:00:57.218Z,15.41
2023-03-21T10:02:38.523Z,16.23
2023-03-21T10:04:19.864Z,16.35
2023-03-21T10:06:01.236Z,17.03
2023-03-21T10:07:42.565Z,15.41
2023-03-21T10:09:23.845Z,15.10
2023-03-21T10:11:05.195Z,15.59
2023-03-21T10:12:46.486Z,14.28
2023-03-21T10:14:27.858Z,12.53
2023-03-21T10:16:09.252Z,15.03
2023-03-21T10:17:50.606Z,15.44
2023-03-21T10:19:31.947Z,16.72
2023-03-21T10:21:13.241Z,15.78
2023-03-21T10:22:54.933Z,16.82
2023-03-21T10:24:36.235Z,17.75
2023-03-21T10:26:18.440Z,16.60
2023-03-21T10:28:01.144Z,17.41
2023-03-21T10:29:42.459Z,16.91
2023-03-21T10:31:23.779Z,17.11
2023-03-21T10:33:05.227Z,16.74
2023-03-21T10:34:46.598Z,16.34
2023-03-21T10:36:27.887Z,16.15
2023-03-21T10:38:09.219Z,16.07
2023-03-21T10:39:50.524Z,15.62
2023-03-21T10:41:31.806Z,15.10
2023-03-21T10:43:13.127Z,14.15
2023-03-21T10:44:54.400Z,13.65
2023-03-21T10:46:36.305Z,13.92
2023-03-21T10:48:18.193Z,13.38
2023-03-21T10:50:08.922Z,13.86
2023-03-21T10:51:51.169Z,14.59
2023-03-21T10:53:32.503Z,14.01
2023-03-21T10:55:13.798Z,12.89
2023-03-21T10:56:55.185Z,13.24
2023-03-21T10:58:36.537Z,13.27
2023-03-21T11:00:17.908Z,13.46
2023-03-21T11:01:59.259Z,14.41
2023-03-21T11:03:40.600Z,14.31
2023-03-21T11:05:21.939Z,13.64
2023-03-21T11:07:03.265Z,13.69
2023-03-21T11:08:44.592Z,12.51
2023-03-21T11:10:28.773Z,13.51
2023-03-21T11:12:10.265Z,18.16
2023-03-21T11:13:51.547Z,19.22
2023-03-21T11:15:32.803Z,19.55
2023-03-21T11:17:14.122Z,20.27
2023-03-21T11:18:55.715Z,20.93
2023-03-21T11:20:37.028Z,21.16
2023-03-21T11:22:18.338Z,21.20
2023-03-21T11:23:59.655Z,20.93
2023-03-21T11:25:41.354Z,21.00
2023-03-21T11:27:22.886Z,20.56
2023-03-21T11:29:04.223Z,21.65
2023-03-21T11:30:45.553Z,20.30
2023-03-21T11:32:26.896Z,19.91
2023-03-21T11:34:08.224Z,20.58
2023-03-21T11:35:49.591Z,19.44
2023-03-21T11:37:31.036Z,19.60
2023-03-21T11:39:12.375Z,20.50
2023-03-21T11:40:53.693Z,20.54
2023-03-21T11:42:35.152Z,19.90
2023-03-21T11:44:16.442Z,20.45
2023-03-21T11:45:58.054Z,20.59
2023-03-21T11:47:40.003Z,21.18
2023-03-21T11:49:21.414Z,20.35
2023-03-21T11:51:03.001Z,20.20
2023-03-21T11:52:44.418Z,20.27
2023-03-21T11:54:25.783Z,20.76
2023-03-21T11:56:07.225Z,19.99
2023-03-21T11:57:48.697Z,19.67
2023-03-21T11:59:30.108Z,20.27
2023-03-21T12:01:11.422Z,20.43
2023-03-21T12:02:52.809Z,19.49
2023-03-21T12:04:34.190Z,20.79
2023-03-21T12:06:15.576Z,19.18
2023-03-21T12:07:56.875Z,18.58
2023-03-21T12:09:38.204Z,18.27
2023-03-21T12:11:19.589Z,19.23
2023-03-21T12:13:00.901Z,18.69
2023-03-21T12:14:42.237Z,19.10
2023-03-21T12:16:23.644Z,18.85
2023-03-21T12:18:04.945Z,18.34
2023-03-21T12:19:46.207Z,18.01
2023-03-21T12:21:27.568Z,17.74
2023-03-21T12:23:08.986Z,17.72
2023-03-21T12:24:50.294Z,16.28
2023-03-21T12:26:31.620Z,17.30
2023-03-21T12:28:15.248Z,17.21
2023-03-21T12:29:56.621Z,15.30
2023-03-21T12:31:38.009Z,16.70
2023-03-21T12:33:19.365Z,15.74
2023-03-21T12:35:00.684Z,15.72
2023-03-21T12:36:42.012Z,16.53
2023-03-21T12:38:23.309Z,16.60
2023-03-21T12:40:04.639Z,16.12
2023-03-21T12:41:45.974Z,16.39
2023-03-21T12:43:27.280Z,15.23
2023-03-21T12:45:15.390Z,16.42
2023-03-21T12:46:57.273Z,16.04
2023-03-21T12:48:38.649Z,15.12
2023-03-21T12:50:19.952Z,15.81
2023-03-21T12:52:01.278Z,15.71
2023-03-21T12:53:42.589Z,15.13
2023-03-21T12:55:23.944Z,15.02
2023-03-21T12:57:05.244Z,14.42
2023-03-21T12:58:46.572Z,14.41
2023-03-21T13:00:27.918Z,15.04
2023-03-21T13:02:09.255Z,14.44
2023-03-21T13:03:50.623Z,15.70
2023-03-21T13:05:31.984Z,15.53
2023-03-21T13:07:13.305Z,14.83
2023-03-21T13:08:54.593Z,14.49
2023-03-21T13:10:36.081Z,15.05
2023-03-21T13:12:17.574Z,14.98
2023-03-21T13:13:58.856Z,14.57
2023-03-21T13:15:40.141Z,14.41
2023-03-21T13:17:21.516Z,15.30
2023-03-21T13:19:02.817Z,14.08
2023-03-21T13:20:44.154Z,14.15
2023-03-21T13:22:25.447Z,16.11
2023-03-21T13:24:06.757Z,15.43
2023-03-21T13:25:48.135Z,15.68
2023-03-21T13:27:29.481Z,16.09
2023-03-21T13:29:10.792Z,15.27
2023-03-21T13:30:52.130Z,15.39
2023-03-21T13:32:33.617Z,16.09
2023-03-21T13:34:15.016Z,16.06
2023-03-21T13:35:56.346Z,14.67
2023-03-21T13:37:37.675Z,15.84
2023-03-21T13:39:19.027Z,15.13
2023-03-21T13:41:00.350Z,15.61
2023-03-21T13:42:41.648Z,14.38
2023-03-21T13:44:22.969Z,16.28
2023-03-21T13:46:04.301Z,16.28
2023-03-21T13:47:45.659Z,14.53
2023-03-21T13:49:27.050Z,15.38
2023-03-21T13:51:08.371Z,14.40
2023-03-21T13:52:49.692Z,14.84
2023-03-21T13:54:30.998Z,14.06
2023-03-21T13:56:12.342Z,15.84
2023-03-21T13:57:53.648Z,16.26
2023-03-21T13:59:34.960Z,16.07
2023-03-21T14:01:16.345Z,15.32
2023-03-21T14:02:57.687Z,15.77
2023-03-21T14:04:48.236Z,16.02
2023-03-21T14:06:35.138Z,15.89
2023-03-21T14:08:24.632Z,15.87
2023-03-21T14:10:12.705Z,16.33
2023-03-21T14:11:56.650Z,16.46
2023-03-21T14:13:50.347Z,17.46
2023-03-21T14:15:32.725Z,17.16
2023-03-21T14:17:14.101Z,17.65
2023-03-21T14:18:56.118Z,18.06
2023-03-21T14:20:38.139Z,18.99
2023-03-21T14:22:19.694Z,18.61
2023-03-21T14:24:00.996Z,19.67
2023-03-21T14:25:47.522Z,19.89
2023-03-21T14:27:29.823Z,19.37
2023-03-21T14:29:25.202Z,20.22
2023-03-21T14:31:07.723Z,19.58
2023-03-21T14:32:49.052Z,19.04
2023-03-21T14:34:30.342Z,18.72
2023-03-21T14:36:12.406Z,19.32
2023-03-21T14:37:53.916Z,19.13
2023-03-21T14:39:35.220Z,19.16
2023-03-21T14:41:16.553Z,18.42
2023-03-21T14:42:58.081Z,18.19
2023-03-21T14:44:56.197Z,18.21
2023-03-21T14:46:37.909Z,18.01
2023-03-21T14:48:19.333Z,18.06
2023-03-21T14:50:00.796Z,18.46
2023-03-21T14:51:42.137Z,20.14
2023-03-21T14:53:23.434Z,20.34
2023-03-21T14:55:04.726Z,20.03
2023-03-21T14:56:46.074Z,19.70
2023-03-21T14:58:27.396Z,20.21
2023-03-21T15:00:08.723Z,19.85
2023-03-21T15:01:50.125Z,19.81
2023-03-21T15:03:31.439Z,20.11
2023-03-21T15:05:12.839Z,20.59
2023-03-21T15:06:54.176Z,20.30
2023-03-21T15:08:35.503Z,20.48
2023-03-21T15:10:16.814Z,19.90
2023-03-21T15:11:58.111Z,20.65
2023-03-21T15:13:39.414Z,20.12
2023-03-21T15:15:20.709Z,20.89
2023-03-21T15:17:02.077Z,21.17
2023-03-21T15:18:43.389Z,20.82
2023-03-21T15:20:24.739Z,20.51
2023-03-21T15:22:06.445Z,20.85
2023-03-21T15:23:47.797Z,20.39
2023-03-21T15:25:29.221Z,20.05
2023-03-21T15:27:10.542Z,19.82
2023-03-21T15:28:51.838Z,20.93
2023-03-21T15:30:33.198Z,20.90
2023-03-21T15:32:14.923Z,22.53
2023-03-21T15:33:56.467Z,22.13
2023-03-21T15:35:38.313Z,22.62
2023-03-21T15:37:20.115Z,21.89
2023-03-21T15:39:01.434Z,22.03
2023-03-21T15:40:42.810Z,22.57
2023-03-21T15:42:24.163Z,22.80
2023-03-21T15:44:05.515Z,23.30
2023-03-21T15:45:46.853Z,22.35
2023-03-21T15:47:28.167Z,22.83
2023-03-21T15:49:09.461Z,22.87
2023-03-21T15:50:50.802Z,22.25
2023-03-21T15:52:32.136Z,23.29
2023-03-21T15:54:15.197Z,23.55
2023-03-21T15:55:57.689Z,23.67
2023-03-21T15:57:38.974Z,23.73
2023-03-21T15:59:20.300Z,22.42
2023-03-21T16:01:01.783Z,23.35
2023-03-21T16:02:43.116Z,23.31
2023-03-21T16:04:24.688Z,22.74
2023-03-21T16:06:05.963Z,22.53
2023-03-21T16:07:47.241Z,22.20
2023-03-21T16:09:28.554Z,21.88
2023-03-21T16:11:09.962Z,21.69
2023-03-21T16:12:51.265Z,22.58
2023-03-21T16:14:32.551Z,21.68
2023-03-21T16:16:13.849Z,21.82
2023-03-21T16:17:55.167Z,23.54
2023-03-21T16:19:36.468Z,24.77
2023-03-21T16:21:17.784Z,23.96
2023-03-21T16:22:59.105Z,23.91
2023-03-21T16:24:40.392Z,23.12
2023-03-21T16:26:21.735Z,23.69
2023-03-21T16:28:03.265Z,24.27
2023-03-21T16:29:44.552Z,23.75
2023-03-21T16:31:25.923Z,23.94
2023-03-21T16:33:07.910Z,23.76
2023-03-21T16:34:49.716Z,24.79
2023-03-21T16:36:32.035Z,25.97
2023-03-21T16:38:13.346Z,26.64
2023-03-21T16:39:54.767Z,26.42
2023-03-21T16:41:36.170Z,25.95
2023-03-21T16:43:17.427Z,25.49
2023-03-21T16:44:58.724Z,26.53
2023-03-21T16:46:40.022Z,27.82
2023-03-21T16:48:21.348Z,27.85
2023-03-21T16:50:02.693Z,28.27
2023-03-21T16:51:44.206Z,27.83
2023-03-21T16:53:25.486Z,27.78
2023-03-21T16:55:06.766Z,27.81
2023-03-21T16:56:48.097Z,27.58
2023-03-21T16:58:29.730Z,27.47
2023-03-21T17:00:11.137Z,28.64
2023-03-21T17:01:52.500Z,27.32
2023-03-21T17:03:33.879Z,28.69
2023-03-21T17:05:15.176Z,27.62
2023-03-21T17:06:56.550Z,27.88
2023-03-21T17:08:37.804Z,28.83
2023-03-21T17:10:19.132Z,29.86
2023-03-21T17:12:00.430Z,29.60
2023-03-21T17:13:41.783Z,29.89
2023-03-21T17:15:23.647Z,30.14
2023-03-21T17:17:05.270Z,31.58
2023-03-21T17:18:46.607Z,31.28
2023-03-21T17:20:27.916Z,31.20
2023-03-21T17:22:09.225Z,31.28
2023-03-21T17:23:50.511Z,31.73
2023-03-21T17:25:31.809Z,32.26
2023-03-21T17:27:13.103Z,33.85
2023-03-21T17:28:55.454Z,32.91
2023-03-21T17:30:36.956Z,32.84
2023-03-21T17:32:18.345Z,33.01
2023-03-21T17:33:59.656Z,33.05
2023-03-21T17:35:40.973Z,33.12
2023-03-21T17:37:22.701Z,33.08
2023-03-21T17:39:04.255Z,33.51
2023-03-21T17:40:45.620Z,33.33
2023-03-21T17:42:26.959Z,34.32
2023-03-21T17:44:08.289Z,34.30
2023-03-21T17:45:49.662Z,33.62
2023-03-21T17:47:30.982Z,33.39
2023-03-21T17:49:12.286Z,33.98
2023-03-21T17:50:53.566Z,34.83
2023-03-21T17:52:34.859Z,34.39
2023-03-21T17:54:16.178Z,33.33
2023-03-21T17:55:57.528Z,33.78
2023-03-21T17:57:38.814Z,34.79
2023-03-21T17:59:20.123Z,35.53
2023-03-21T18:01:01.406Z,36.05
2023-03-21T18:02:42.694Z,36.30
2023-03-21T18:04:24.117Z,35.97
2023-03-21T18:06:05.498Z,35.43
2023-03-21T18:08:08.909Z,35.95
2023-03-21T18:09:48.063Z,35.69
2023-03-21T18:11:29.370Z,35.79
2023-03-21T18:13:10.687Z,35.42
2023-03-21T18:14:52.012Z,34.67
2023-03-21T18:16:33.353Z,34.21
2023-03-21T18:18:14.677Z,33.26
2023-03-21T18:19:56.060Z,34.26
2023-03-21T18:21:37.408Z,35.02
2023-03-21T18:23:18.839Z,35.95
2023-03-21T18:25:00.303Z,35.21
2023-03-21T18:26:41.600Z,37.02
2023-03-21T18:28:22.928Z,35.35
2023-03-21T18:30:26.170Z,35.89
2023-03-21T18:32:07.772Z,36.19
2023-03-21T18:33:49.609Z,35.24
2023-03-21T18:35:30.922Z,36.45
2023-03-21T18:37:13.550Z,37.49
2023-03-21T18:38:54.924Z,38.67
2023-03-21T18:40:36.486Z,36.89
2023-03-21T18:42:19.767Z,34.95
2023-03-21T18:44:13.436Z,36.83
2023-03-21T18:45:58.837Z,36.13
2023-03-21T18:47:40.142Z,35.80
2023-03-21T18:50:05.480Z,37.99
2023-03-21T18:51:22.740Z,35.38
2023-03-21T18:53:04.027Z,35.33
2023-03-21T18:54:45.312Z,35.64
2023-03-21T18:57:19.553Z,35.03
2023-03-21T18:58:27.934Z,34.87
2023-03-21T19:00:09.229Z,34.45
2023-03-21T19:01:50.576Z,34.51
2023-03-21T19:03:36.768Z,36.54
2023-03-21T19:05:18.807Z,33.92
2023-03-21T19:07:00.192Z,37.15
2023-03-21T19:08:42.016Z,36.53
2023-03-21T19:10:23.362Z,36.52
2023-03-21T19:12:04.644Z,37.13
2023-03-21T19:13:45.980Z,36.09
2023-03-21T19:15:27.277Z,36.91
2023-03-21T19:18:06.494Z,38.68
2023-03-21T19:19:09.925Z,39.02
2023-03-21T19:20:51.321Z,35.65
2023-03-21T19:22:32.927Z,37.44
2023-03-21T19:24:26.893Z,37.15
2023-03-21T19:26:09.785Z,38.31
2023-03-21T19:27:52.217Z,38.55
2023-03-21T19:29:33.698Z,35.91
2023-03-21T19:31:15.060Z,35.90
2023-03-21T19:32:56.409Z,37.89
2023-03-21T19:34:37.773Z,35.06
2023-03-21T19:36:22.698Z,34.81
2023-03-21T19:38:04.624Z,36.57
2023-03-21T19:39:45.959Z,34.07
2023-03-21T19:41:27.238Z,37.35
2023-03-21T19:43:31.206Z,34.57
2023-03-21T19:45:09.827Z,36.26
2023-03-21T19:46:51.211Z,36.89
2023-03-21T19:48:32.689Z,37.70
2023-03-21T19:52:15.381Z,39.28
2023-03-21T19:53:56.690Z,39.74
2023-03-21T19:55:37.967Z,40.86
2023-03-21T19:57:19.323Z,37.63
2023-03-21T19:59:00.626Z,36.94
2023-03-21T20:00:41.941Z,38.81
2023-03-21T20:02:35.012Z,38.66
2023-03-21T20:04:17.134Z,38.61
2023-03-21T20:05:58.397Z,38.64
2023-03-21T20:07:39.712Z,37.84
2023-03-21T20:11:22.590Z,39.31
2023-03-21T20:13:03.856Z,39.04
2023-03-21T20:14:45.203Z,38.86
2023-03-21T20:16:33.657Z,39.61
2023-03-21T20:18:15.776Z,38.35
2023-03-21T20:19:57.057Z,37.61
2023-03-21T20:21:48.540Z,38.70
2023-03-21T20:23:34.076Z,40.04
2023-03-21T20:25:15.643Z,38.71
2023-03-21T20:26:57.352Z,37.34
2023-03-21T20:28:39.430Z,35.90
2023-03-21T20:30:20.969Z,36.69
2023-03-21T20:32:02.284Z,38.29
2023-03-21T20:33:43.634Z,39.49
2023-03-21T20:36:07.750Z,40.25
2023-03-21T20:37:26.200Z,40.48
2023-03-21T20:39:07.520Z,39.36
2023-03-21T20:40:49.535Z,39.90
2023-03-21T20:42:31.537Z,38.12
2023-03-21T20:46:14.261Z,37.81
2023-03-21T20:47:55.670Z,38.83
2023-03-21T20:49:37.006Z,40.98
2023-03-21T20:53:19.593Z,38.37
2023-03-21T20:55:00.919Z,40.41
2023-03-21T20:56:42.251Z,42.22
2023-03-21T20:58:53.633Z,39.83
2023-03-21T21:00:24.981Z,41.43
2023-03-21T21:02:06.308Z,40.43
2023-03-21T21:03:47.590Z,39.96
2023-03-21T21:05:32.255Z,39.98
2023-03-21T21:07:15.553Z,40.71
2023-03-21T21:08:56.864Z,40.49
2023-03-21T21:11:04.080Z,40.18
2023-03-21T21:12:39.461Z,39.82
2023-03-21T21:14:20.737Z,39.03
2023-03-21T21:16:02.086Z,42.09
2023-03-21T21:19:44.713Z,41.19
2023-03-21T21:21:25.981Z,39.96
2023-03-21T21:23:07.646Z,40.86
2023-03-21T21:24:49.204Z,41.94
2023-03-21T21:26:30.708Z,38.18
2023-03-21T21:28:12.382Z,40.65
2023-03-21T21:29:53.775Z,40.60
2023-03-21T21:31:35.200Z,40.04
2023-03-21T21:33:16.532Z,40.97
2023-03-21T21:34:58.532Z,40.05
2023-03-21T21:36:40.025Z,40.94
2023-03-21T21:38:21.348Z,41.93
2023-03-21T21:40:02.616Z,43.16
2023-03-21T21:41:43.940Z,42.25
2023-03-21T21:43:25.256Z,42.06
2023-03-21T21:45:06.602Z,39.20
2023-03-21T21:46:47.969Z,39.33
2023-03-21T21:48:29.268Z,37.94
2023-03-21T21:50:11.262Z,40.39
2023-03-21T21:51:52.824Z,40.55
2023-03-21T21:53:34.136Z,38.17
2023-03-21T21:55:15.455Z,38.50
2023-03-21T21:56:56.813Z,39.98
2023-03-21T21:58:38.090Z,37.47
2023-03-21T22:00:19.410Z,38.65
2023-03-21T22:02:00.751Z,39.72
2023-03-21T22:03:42.073Z,40.19
2023-03-21T22:05:23.392Z,40.04
2023-03-21T22:07:04.705Z,38.87
2023-03-21T22:08:46.170Z,39.59
2023-03-21T22:10:27.472Z,40.74